Aviation Digital Data Service (ADDS)

Output produced by METARs form (0137 UTC 19 November 2018)
found at http://www.aviationweather.gov/metar/data/
 
Forecast for: EGHI (SOUTHAMPTON WX C, GB)
Text: TAF EGHI 181953Z 1821/1823 05009KT CAVOK
Forecast period: 2100 to 2300 UTC 18 November 2018
Forecast type: FROM: standard forecast or significant change
Winds: from the NE (50 degrees) at 10 MPH (9 knots; 4.6 m/s)
Visibility: 6 or more miles 10+ km)
Ceiling: unknown
Clouds: missing
Weather: NSW  (no significant weather)
Text: PROB30 1821/1823 8000
Forecast period: 2100 to 2300 UTC 18 November 2018
Forecast type: PROBABLE: 30 percent likelihood of the following during this time
Visibility: 5 miles (8 km)
Ceiling: unknown
Clouds: missing
Weather: no significant weather forecast for this period

Forecast for: EGHH (BOURNEMOUTH AIRP, GB)
Text: TAF EGHH 181953Z 1821/1906 06012KT CAVOK
Forecast period: 2100 UTC 18 November 2018 to 0300 UTC 19 November 2018
Forecast type: FROM: standard forecast or significant change
Winds: from the ENE (60 degrees) at 14 MPH (12 knots; 6.2 m/s)
Visibility: 6 or more miles 10+ km)
Ceiling: unknown
Clouds: missing
Weather: NSW  (no significant weather)
Text: PROB30 1821/1906 8000
Forecast period: 2100 UTC 18 November 2018 to 0600 UTC 19 November 2018
Forecast type: PROBABLE: 30 percent likelihood of the following during this time
Visibility: 5 miles (8 km)
Ceiling: unknown
Clouds: missing
Weather: no significant weather forecast for this period
Text: BECMG 1903/1906 BKN015
Forecast period: 0300 to 0600 UTC 19 November 2018
Forecast type: BECOMING: Conditions expected to become as follows by 0600 UTC 19 November 2018
Winds: from the ENE (60 degrees) at 14 MPH (12 knots; 6.2 m/s)
Visibility: 6 or more miles 10+ km)
Ceiling: 1500 feet AGL
Clouds: broken clouds at 1500 feet AGL
Weather: NSW  (no significant weather)

Forecast for: EGKA (SHOREHAM-BY-SEA , GB)
Text: TAF EGKA 181357Z 1815/1818 07012KT CAVOK
Forecast period: 1500 to 1800 UTC 18 November 2018
Forecast type: FROM: standard forecast or significant change
Winds: from the ENE (70 degrees) at 14 MPH (12 knots; 6.2 m/s)
Visibility: 6 or more miles 10+ km)
Ceiling: unknown
Clouds: missing
Weather: NSW  (no significant weather)
Text: TEMPO 1815/1818 06016G26KT
Forecast period: 1500 to 1800 UTC 18 November 2018
Forecast type: TEMPORARY: The following changes expected for less than half the time period
Winds: from the ENE (60 degrees) at 18 MPH (16 knots; 8.2 m/s)
gusting to 30 MPH (26 knots; 13.4 m/s)
Visibility: missing
Ceiling: unknown
Clouds: missing
Weather: no significant weather forecast for this period
Text: PROB30 1816/1818 8000
Forecast period: 1600 to 1800 UTC 18 November 2018
Forecast type: PROBABLE: 30 percent likelihood of the following during this time
Visibility: 5 miles (8 km)
Ceiling: unknown
Clouds: missing
Weather: no significant weather forecast for this period